sensor_id;sensor_type;location;lat;lon;timestamp;temperature;humidity
71672;DHT22;67659;45.554;11.812;2023-07-09T00:01:13;25.30;93.90
71672;DHT22;67659;45.554;11.812;2023-07-09T00:03:39;25.30;94.40
71672;DHT22;67659;45.554;11.812;2023-07-09T00:06:07;25.20;93.30
71672;DHT22;67659;45.554;11.812;2023-07-09T00:08:34;25.20;93.60
71672;DHT22;67659;45.554;11.812;2023-07-09T00:11:00;25.30;92.50
71672;DHT22;67659;45.554;11.812;2023-07-09T00:13:27;25.30;92.80
71672;DHT22;67659;45.554;11.812;2023-07-09T00:15:57;25.10;92.90
71672;DHT22;67659;45.554;11.812;2023-07-09T00:18:24;25.20;93.30
71672;DHT22;67659;45.554;11.812;2023-07-09T00:20:50;25.20;93.20
71672;DHT22;67659;45.554;11.812;2023-07-09T00:23:18;25.20;93.20
71672;DHT22;67659;45.554;11.812;2023-07-09T00:25:46;25.20;93.00
71672;DHT22;67659;45.554;11.812;2023-07-09T00:28:17;25.20;92.50
71672;DHT22;67659;45.554;11.812;2023-07-09T00:30:47;25.30;92.90
71672;DHT22;67659;45.554;11.812;2023-07-09T00:33:14;25.30;92.60
71672;DHT22;67659;45.554;11.812;2023-07-09T00:35:43;25.30;92.10
71672;DHT22;67659;45.554;11.812;2023-07-09T00:38:19;25.20;93.20
71672;DHT22;67659;45.554;11.812;2023-07-09T00:41:03;25.20;93.60
71672;DHT22;67659;45.554;11.812;2023-07-09T00:43:36;25.20;94.10
71672;DHT22;67659;45.554;11.812;2023-07-09T00:48:52;25.20;94.90
71672;DHT22;67659;45.554;11.812;2023-07-09T00:51:21;25.10;94.90
71672;DHT22;67659;45.554;11.812;2023-07-09T00:53:50;25.10;95.30
71672;DHT22;67659;45.554;11.812;2023-07-09T00:56:29;24.90;96.30
71672;DHT22;67659;45.554;11.812;2023-07-09T00:58:59;24.90;97.90
71672;DHT22;67659;45.554;11.812;2023-07-09T01:01:27;24.70;96.30
71672;DHT22;67659;45.554;11.812;2023-07-09T01:03:55;24.70;96.10
71672;DHT22;67659;45.554;11.812;2023-07-09T01:06:39;24.70;96.10
71672;DHT22;67659;45.554;11.812;2023-07-09T01:09:07;24.70;96.60
71672;DHT22;67659;45.554;11.812;2023-07-09T01:11:33;24.80;95.70
71672;DHT22;67659;45.554;11.812;2023-07-09T01:14:01;24.90;95.70
71672;DHT22;67659;45.554;11.812;2023-07-09T01:16:31;24.80;96.60
71672;DHT22;67659;45.554;11.812;2023-07-09T01:18:58;24.80;96.50
71672;DHT22;67659;45.554;11.812;2023-07-09T01:21:24;24.70;97.30
71672;DHT22;67659;45.554;11.812;2023-07-09T01:23:50;24.70;97.10
71672;DHT22;67659;45.554;11.812;2023-07-09T01:26:21;24.50;97.70
71672;DHT22;67659;45.554;11.812;2023-07-09T01:28:50;24.50;98.10
71672;DHT22;67659;45.554;11.812;2023-07-09T01:31:16;24.50;97.60
71672;DHT22;67659;45.554;11.812;2023-07-09T01:33:43;24.30;98.60
71672;DHT22;67659;45.554;11.812;2023-07-09T01:36:15;24.20;99.90
71672;DHT22;67659;45.554;11.812;2023-07-09T01:38:42;24.30;99.90
71672;DHT22;67659;45.554;11.812;2023-07-09T01:41:09;24.20;99.40
71672;DHT22;67659;45.554;11.812;2023-07-09T01:43:39;24.30;99.30
71672;DHT22;67659;45.554;11.812;2023-07-09T01:46:07;24.20;99.60
71672;DHT22;67659;45.554;11.812;2023-07-09T01:48:34;24.20;99.90
71672;DHT22;67659;45.554;11.812;2023-07-09T01:51:10;24.10;99.80
71672;DHT22;67659;45.554;11.812;2023-07-09T01:53:38;24.30;99.90
71672;DHT22;67659;45.554;11.812;2023-07-09T01:56:04;24.20;99.90
71672;DHT22;67659;45.554;11.812;2023-07-09T01:58:33;24.30;99.90
71672;DHT22;67659;45.554;11.812;2023-07-09T02:00:59;24.30;99.70
71672;DHT22;67659;45.554;11.812;2023-07-09T02:03:25;24.20;98.90
71672;DHT22;67659;45.554;11.812;2023-07-09T02:05:54;24.20;99.10
71672;DHT22;67659;45.554;11.812;2023-07-09T02:08:21;24.10;99.90
71672;DHT22;67659;45.554;11.812;2023-07-09T02:10:50;24.00;99.90
71672;DHT22;67659;45.554;11.812;2023-07-09T02:13:16;24.00;99.90
71672;DHT22;67659;45.554;11.812;2023-07-09T02:15:45;23.80;99.90
71672;DHT22;67659;45.554;11.812;2023-07-09T02:18:13;23.80;99.90
71672;DHT22;67659;45.554;11.812;2023-07-09T02:20:39;23.70;99.90
71672;DHT22;67659;45.554;11.812;2023-07-09T02:23:07;23.70;99.90
71672;DHT22;67659;45.554;11.812;2023-07-09T02:25:32;23.80;99.90
71672;DHT22;67659;45.554;11.812;2023-07-09T02:27:59;23.90;99.90
71672;DHT22;67659;45.554;11.812;2023-07-09T02:30:25;23.90;99.90
71672;DHT22;67659;45.554;11.812;2023-07-09T02:32:50;24.10;99.90
71672;DHT22;67659;45.554;11.812;2023-07-09T02:35:21;24.20;99.90
71672;DHT22;67659;45.554;11.812;2023-07-09T02:37:47;24.20;99.90
71672;DHT22;67659;45.554;11.812;2023-07-09T02:40:14;24.20;98.80
71672;DHT22;67659;45.554;11.812;2023-07-09T02:42:40;24.30;99.20
71672;DHT22;67659;45.554;11.812;2023-07-09T02:45:06;24.20;98.80
71672;DHT22;67659;45.554;11.812;2023-07-09T02:47:32;24.10;99.50
71672;DHT22;67659;45.554;11.812;2023-07-09T02:49:58;23.90;99.90
71672;DHT22;67659;45.554;11.812;2023-07-09T02:52:24;23.80;99.90
71672;DHT22;67659;45.554;11.812;2023-07-09T02:54:50;23.70;99.90
71672;DHT22;67659;45.554;11.812;2023-07-09T02:57:16;23.80;99.90
71672;DHT22;67659;45.554;11.812;2023-07-09T02:59:42;23.90;99.90
71672;DHT22;67659;45.554;11.812;2023-07-09T03:02:07;23.90;99.90
71672;DHT22;67659;45.554;11.812;2023-07-09T03:04:33;23.90;99.90
71672;DHT22;67659;45.554;11.812;2023-07-09T03:06:59;24.10;99.60
71672;DHT22;67659;45.554;11.812;2023-07-09T03:09:25;23.90;99.70
71672;DHT22;67659;45.554;11.812;2023-07-09T03:11:52;24.00;99.70
71672;DHT22;67659;45.554;11.812;2023-07-09T03:14:18;23.90;99.90
71672;DHT22;67659;45.554;11.812;2023-07-09T03:16:44;23.90;99.90
71672;DHT22;67659;45.554;11.812;2023-07-09T03:19:10;23.70;99.90
71672;DHT22;67659;45.554;11.812;2023-07-09T03:21:36;23.70;99.90
71672;DHT22;67659;45.554;11.812;2023-07-09T03:24:01;23.70;99.90
71672;DHT22;67659;45.554;11.812;2023-07-09T03:26:28;23.60;99.90
71672;DHT22;67659;45.554;11.812;2023-07-09T03:28:54;23.50;99.90
71672;DHT22;67659;45.554;11.812;2023-07-09T03:31:20;23.30;99.90
71672;DHT22;67659;45.554;11.812;2023-07-09T03:33:48;23.40;99.90
71672;DHT22;67659;45.554;11.812;2023-07-09T03:36:14;23.50;99.90
71672;DHT22;67659;45.554;11.812;2023-07-09T03:38:40;23.60;99.90
71672;DHT22;67659;45.554;11.812;2023-07-09T03:41:06;23.60;99.90
71672;DHT22;67659;45.554;11.812;2023-07-09T03:43:32;23.60;99.90
71672;DHT22;67659;45.554;11.812;2023-07-09T03:45:58;23.60;99.90
71672;DHT22;67659;45.554;11.812;2023-07-09T03:48:24;23.60;99.90
71672;DHT22;67659;45.554;11.812;2023-07-09T03:50:50;23.70;99.90
71672;DHT22;67659;45.554;11.812;2023-07-09T03:53:16;23.60;99.90
71672;DHT22;67659;45.554;11.812;2023-07-09T03:55:44;23.70;99.90
71672;DHT22;67659;45.554;11.812;2023-07-09T03:58:11;23.60;99.90
71672;DHT22;67659;45.554;11.812;2023-07-09T04:00:37;23.60;99.90
71672;DHT22;67659;45.554;11.812;2023-07-09T04:03:04;23.60;99.90
71672;DHT22;67659;45.554;11.812;2023-07-09T04:05:34;23.70;99.90
71672;DHT22;67659;45.554;11.812;2023-07-09T04:08:04;23.70;99.90
71672;DHT22;67659;45.554;11.812;2023-07-09T04:10:31;23.80;99.90
71672;DHT22;67659;45.554;11.812;2023-07-09T04:13:08;24.00;99.90
71672;DHT22;67659;45.554;11.812;2023-07-09T04:15:41;23.80;99.90
71672;DHT22;67659;45.554;11.812;2023-07-09T04:18:08;23.80;99.90
71672;DHT22;67659;45.554;11.812;2023-07-09T04:20:50;23.80;99.90
71672;DHT22;67659;45.554;11.812;2023-07-09T04:23:26;23.80;99.90
71672;DHT22;67659;45.554;11.812;2023-07-09T04:25:53;23.80;99.90
71672;DHT22;67659;45.554;11.812;2023-07-09T04:28:19;23.80;99.90
71672;DHT22;67659;45.554;11.812;2023-07-09T04:30:49;23.90;99.90
71672;DHT22;67659;45.554;11.812;2023-07-09T04:33:15;23.90;99.90
71672;DHT22;67659;45.554;11.812;2023-07-09T04:35:44;24.00;99.90
71672;DHT22;67659;45.554;11.812;2023-07-09T04:38:10;24.00;99.90
71672;DHT22;67659;45.554;11.812;2023-07-09T04:40:36;24.20;99.90
71672;DHT22;67659;45.554;11.812;2023-07-09T04:43:02;24.30;99.90
71672;DHT22;67659;45.554;11.812;2023-07-09T04:45:28;24.20;99.90
71672;DHT22;67659;45.554;11.812;2023-07-09T04:47:54;24.30;99.90
71672;DHT22;67659;45.554;11.812;2023-07-09T04:50:20;24.40;99.90
71672;DHT22;67659;45.554;11.812;2023-07-09T04:52:46;24.40;99.90
71672;DHT22;67659;45.554;11.812;2023-07-09T04:55:12;24.40;99.90
71672;DHT22;67659;45.554;11.812;2023-07-09T04:57:37;24.40;99.90
71672;DHT22;67659;45.554;11.812;2023-07-09T05:00:04;24.40;99.90
71672;DHT22;67659;45.554;11.812;2023-07-09T05:02:31;24.50;99.90
71672;DHT22;67659;45.554;11.812;2023-07-09T05:04:57;24.60;99.30
71672;DHT22;67659;45.554;11.812;2023-07-09T05:07:23;24.70;99.30
71672;DHT22;67659;45.554;11.812;2023-07-09T05:09:49;24.80;98.60
71672;DHT22;67659;45.554;11.812;2023-07-09T05:12:15;24.90;98.30
71672;DHT22;67659;45.554;11.812;2023-07-09T05:14:41;25.00;97.50
71672;DHT22;67659;45.554;11.812;2023-07-09T05:17:07;25.20;97.00
71672;DHT22;67659;45.554;11.812;2023-07-09T05:19:33;25.30;96.60
71672;DHT22;67659;45.554;11.812;2023-07-09T05:21:59;25.40;96.50
71672;DHT22;67659;45.554;11.812;2023-07-09T05:24:25;25.50;96.50
71672;DHT22;67659;45.554;11.812;2023-07-09T05:26:51;25.70;96.20
71672;DHT22;67659;45.554;11.812;2023-07-09T05:29:16;25.80;95.70
71672;DHT22;67659;45.554;11.812;2023-07-09T05:31:42;25.90;95.40
71672;DHT22;67659;45.554;11.812;2023-07-09T05:34:08;26.00;94.20
71672;DHT22;67659;45.554;11.812;2023-07-09T05:36:34;26.30;93.20
71672;DHT22;67659;45.554;11.812;2023-07-09T05:39:00;26.60;91.10
71672;DHT22;67659;45.554;11.812;2023-07-09T05:41:26;26.80;91.10
71672;DHT22;67659;45.554;11.812;2023-07-09T05:43:52;27.10;89.80
71672;DHT22;67659;45.554;11.812;2023-07-09T05:46:18;27.30;89.50
71672;DHT22;67659;45.554;11.812;2023-07-09T05:48:45;27.40;88.80
71672;DHT22;67659;45.554;11.812;2023-07-09T05:51:11;27.70;88.70
71672;DHT22;67659;45.554;11.812;2023-07-09T05:53:36;27.80;87.80
71672;DHT22;67659;45.554;11.812;2023-07-09T05:56:02;27.90;87.30
71672;DHT22;67659;45.554;11.812;2023-07-09T05:58:28;28.10;86.70
71672;DHT22;67659;45.554;11.812;2023-07-09T06:00:54;28.20;86.60
71672;DHT22;67659;45.554;11.812;2023-07-09T06:03:23;28.40;85.50
71672;DHT22;67659;45.554;11.812;2023-07-09T06:05:49;28.40;85.70
71672;DHT22;67659;45.554;11.812;2023-07-09T06:08:16;28.40;83.40
71672;DHT22;67659;45.554;11.812;2023-07-09T06:10:54;28.40;84.20
71672;DHT22;67659;45.554;11.812;2023-07-09T06:13:21;28.60;84.50
71672;DHT22;67659;45.554;11.812;2023-07-09T06:15:48;28.50;84.00
71672;DHT22;67659;45.554;11.812;2023-07-09T06:18:14;28.90;84.30
71672;DHT22;67659;45.554;11.812;2023-07-09T06:20:40;28.90;83.80
71672;DHT22;67659;45.554;11.812;2023-07-09T06:23:06;28.80;84.40
71672;DHT22;67659;45.554;11.812;2023-07-09T06:25:33;28.90;84.10
71672;DHT22;67659;45.554;11.812;2023-07-09T06:27:59;29.20;82.60
71672;DHT22;67659;45.554;11.812;2023-07-09T06:30:24;29.40;82.70
71672;DHT22;67659;45.554;11.812;2023-07-09T06:32:50;29.50;82.10
71672;DHT22;67659;45.554;11.812;2023-07-09T06:35:16;29.50;81.30
71672;DHT22;67659;45.554;11.812;2023-07-09T06:37:41;29.40;81.10
71672;DHT22;67659;45.554;11.812;2023-07-09T06:40:08;29.40;81.20
71672;DHT22;67659;45.554;11.812;2023-07-09T06:42:35;29.50;81.80
71672;DHT22;67659;45.554;11.812;2023-07-09T06:45:01;29.70;81.10
71672;DHT22;67659;45.554;11.812;2023-07-09T06:47:29;29.90;80.90
71672;DHT22;67659;45.554;11.812;2023-07-09T06:49:54;30.00;80.50
71672;DHT22;67659;45.554;11.812;2023-07-09T06:52:20;30.10;80.30
71672;DHT22;67659;45.554;11.812;2023-07-09T06:54:46;30.30;80.30
71672;DHT22;67659;45.554;11.812;2023-07-09T06:57:12;30.40;81.20
71672;DHT22;67659;45.554;11.812;2023-07-09T06:59:38;30.50;80.50
71672;DHT22;67659;45.554;11.812;2023-07-09T07:02:04;31.10;80.00
71672;DHT22;67659;45.554;11.812;2023-07-09T07:04:30;30.80;78.80
71672;DHT22;67659;45.554;11.812;2023-07-09T07:06:56;30.90;79.80
71672;DHT22;67659;45.554;11.812;2023-07-09T07:09:23;31.20;79.30
71672;DHT22;67659;45.554;11.812;2023-07-09T07:11:49;31.40;79.70
71672;DHT22;67659;45.554;11.812;2023-07-09T07:14:16;31.50;79.60
71672;DHT22;67659;45.554;11.812;2023-07-09T07:16:41;31.80;79.10
71672;DHT22;67659;45.554;11.812;2023-07-09T07:19:07;31.90;78.60
71672;DHT22;67659;45.554;11.812;2023-07-09T07:21:35;31.80;77.40
71672;DHT22;67659;45.554;11.812;2023-07-09T07:24:01;31.80;78.30
71672;DHT22;67659;45.554;11.812;2023-07-09T07:26:26;32.00;78.30
71672;DHT22;67659;45.554;11.812;2023-07-09T07:28:52;32.20;77.70
71672;DHT22;67659;45.554;11.812;2023-07-09T07:31:18;32.00;76.40
71672;DHT22;67659;45.554;11.812;2023-07-09T07:33:44;31.90;77.10
71672;DHT22;67659;45.554;11.812;2023-07-09T07:36:10;31.90;76.10
71672;DHT22;67659;45.554;11.812;2023-07-09T07:38:35;31.70;77.10
71672;DHT22;67659;45.554;11.812;2023-07-09T07:41:02;32.10;77.40
71672;DHT22;67659;45.554;11.812;2023-07-09T07:43:28;32.20;76.50
71672;DHT22;67659;45.554;11.812;2023-07-09T07:45:54;32.20;77.50
71672;DHT22;67659;45.554;11.812;2023-07-09T07:48:20;32.40;76.80
71672;DHT22;67659;45.554;11.812;2023-07-09T07:50:46;32.70;76.20
71672;DHT22;67659;45.554;11.812;2023-07-09T07:53:14;32.80;76.20
71672;DHT22;67659;45.554;11.812;2023-07-09T07:55:40;33.10;76.50
71672;DHT22;67659;45.554;11.812;2023-07-09T07:58:12;33.50;76.20
71672;DHT22;67659;45.554;11.812;2023-07-09T08:00:38;33.40;75.80
71672;DHT22;67659;45.554;11.812;2023-07-09T08:03:04;33.60;76.30
71672;DHT22;67659;45.554;11.812;2023-07-09T08:05:30;33.50;75.60
71672;DHT22;67659;45.554;11.812;2023-07-09T08:07:56;33.60;74.50
71672;DHT22;67659;45.554;11.812;2023-07-09T08:10:22;33.40;74.80
71672;DHT22;67659;45.554;11.812;2023-07-09T08:12:48;33.70;74.70
71672;DHT22;67659;45.554;11.812;2023-07-09T08:15:14;34.00;75.40
71672;DHT22;67659;45.554;11.812;2023-07-09T08:17:40;34.00;74.80
71672;DHT22;67659;45.554;11.812;2023-07-09T08:20:06;33.90;75.40
71672;DHT22;67659;45.554;11.812;2023-07-09T08:22:32;34.20;74.00
71672;DHT22;67659;45.554;11.812;2023-07-09T08:24:58;34.20;74.50
71672;DHT22;67659;45.554;11.812;2023-07-09T08:27:24;33.90;73.80
71672;DHT22;67659;45.554;11.812;2023-07-09T08:29:50;33.90;73.80
71672;DHT22;67659;45.554;11.812;2023-07-09T08:32:16;34.30;73.80
71672;DHT22;67659;45.554;11.812;2023-07-09T08:34:42;34.50;72.90
71672;DHT22;67659;45.554;11.812;2023-07-09T08:37:08;34.70;70.60
71672;DHT22;67659;45.554;11.812;2023-07-09T08:39:34;34.80;70.30
71672;DHT22;67659;45.554;11.812;2023-07-09T08:42:11;35.00;70.90
71672;DHT22;67659;45.554;11.812;2023-07-09T08:47:17;35.40;69.80
71672;DHT22;67659;45.554;11.812;2023-07-09T08:49:53;35.50;69.40
71672;DHT22;67659;45.554;11.812;2023-07-09T08:54:52;35.80;66.40
71672;DHT22;67659;45.554;11.812;2023-07-09T08:57:26;36.40;63.40
71672;DHT22;67659;45.554;11.812;2023-07-09T08:59:59;37.00;62.40
71672;DHT22;67659;45.554;11.812;2023-07-09T09:02:36;36.00;63.10
71672;DHT22;67659;45.554;11.812;2023-07-09T09:05:05;35.60;66.40
71672;DHT22;67659;45.554;11.812;2023-07-09T09:07:41;35.30;64.50
71672;DHT22;67659;45.554;11.812;2023-07-09T09:10:13;35.40;63.10
71672;DHT22;67659;45.554;11.812;2023-07-09T09:15:20;35.90;64.50
71672;DHT22;67659;45.554;11.812;2023-07-09T09:17:54;35.80;62.40
71672;DHT22;67659;45.554;11.812;2023-07-09T09:20:21;35.70;65.50
71672;DHT22;67659;45.554;11.812;2023-07-09T09:22:54;36.10;65.10
71672;DHT22;67659;45.554;11.812;2023-07-09T09:25:27;36.40;61.10
71672;DHT22;67659;45.554;11.812;2023-07-09T09:27:55;36.50;61.00
71672;DHT22;67659;45.554;11.812;2023-07-09T09:30:24;36.20;61.00
71672;DHT22;67659;45.554;11.812;2023-07-09T09:35:25;36.40;62.10
71672;DHT22;67659;45.554;11.812;2023-07-09T09:37:54;36.50;61.40
71672;DHT22;67659;45.554;11.812;2023-07-09T09:40:21;37.00;59.80
71672;DHT22;67659;45.554;11.812;2023-07-09T09:42:55;37.20;59.20
71672;DHT22;67659;45.554;11.812;2023-07-09T09:45:27;37.40;59.30
71672;DHT22;67659;45.554;11.812;2023-07-09T09:48:10;37.70;58.50
71672;DHT22;67659;45.554;11.812;2023-07-09T09:50:40;38.00;56.90
71672;DHT22;67659;45.554;11.812;2023-07-09T09:53:08;37.60;57.70
71672;DHT22;67659;45.554;11.812;2023-07-09T09:55:38;37.40;58.90
71672;DHT22;67659;45.554;11.812;2023-07-09T09:58:14;37.70;57.10
71672;DHT22;67659;45.554;11.812;2023-07-09T10:00:50;37.80;57.10
71672;DHT22;67659;45.554;11.812;2023-07-09T10:03:18;37.80;60.10
71672;DHT22;67659;45.554;11.812;2023-07-09T10:05:51;38.40;57.40
71672;DHT22;67659;45.554;11.812;2023-07-09T10:10:52;38.50;57.10
71672;DHT22;67659;45.554;11.812;2023-07-09T10:13:28;38.60;56.70
71672;DHT22;67659;45.554;11.812;2023-07-09T10:21:46;38.90;55.90
71672;DHT22;67659;45.554;11.812;2023-07-09T10:27:15;39.10;56.20
71672;DHT22;67659;45.554;11.812;2023-07-09T10:33:09;38.70;54.80
71672;DHT22;67659;45.554;11.812;2023-07-09T10:41:14;38.70;53.30
71672;DHT22;67659;45.554;11.812;2023-07-09T10:43:52;38.60;56.10
71672;DHT22;67659;45.554;11.812;2023-07-09T10:46:24;39.00;53.70
71672;DHT22;67659;45.554;11.812;2023-07-09T10:48:53;38.80;51.30
71672;DHT22;67659;45.554;11.812;2023-07-09T10:51:29;38.50;52.90
71672;DHT22;67659;45.554;11.812;2023-07-09T10:54:07;38.40;53.30
71672;DHT22;67659;45.554;11.812;2023-07-09T10:56:39;38.70;50.90
71672;DHT22;67659;45.554;11.812;2023-07-09T11:01:42;38.80;50.30
71672;DHT22;67659;45.554;11.812;2023-07-09T11:04:18;38.80;50.10
71672;DHT22;67659;45.554;11.812;2023-07-09T11:06:48;38.60;49.70
71672;DHT22;67659;45.554;11.812;2023-07-09T11:09:26;39.20;48.00
71672;DHT22;67659;45.554;11.812;2023-07-09T11:11:57;39.20;48.40
71672;DHT22;67659;45.554;11.812;2023-07-09T11:17:18;39.10;49.90
71672;DHT22;67659;45.554;11.812;2023-07-09T11:19:53;39.20;52.70
71672;DHT22;67659;45.554;11.812;2023-07-09T11:22:35;39.20;51.40
71672;DHT22;67659;45.554;11.812;2023-07-09T11:25:13;39.10;52.50
71672;DHT22;67659;45.554;11.812;2023-07-09T11:28:05;39.40;51.00
71672;DHT22;67659;45.554;11.812;2023-07-09T11:30:32;39.50;52.00
71672;DHT22;67659;45.554;11.812;2023-07-09T11:33:01;39.40;49.70
71672;DHT22;67659;45.554;11.812;2023-07-09T11:35:29;38.90;51.30
71672;DHT22;67659;45.554;11.812;2023-07-09T11:38:20;39.00;51.40
71672;DHT22;67659;45.554;11.812;2023-07-09T11:40:54;39.00;51.90
71672;DHT22;67659;45.554;11.812;2023-07-09T11:43:34;39.10;52.00
71672;DHT22;67659;45.554;11.812;2023-07-09T11:46:18;39.10;54.10
71672;DHT22;67659;45.554;11.812;2023-07-09T11:48:45;39.20;55.80
71672;DHT22;67659;45.554;11.812;2023-07-09T11:51:21;39.30;53.40
71672;DHT22;67659;45.554;11.812;2023-07-09T11:53:53;39.30;54.40
71672;DHT22;67659;45.554;11.812;2023-07-09T11:56:21;39.10;54.40
71672;DHT22;67659;45.554;11.812;2023-07-09T11:58:56;38.70;54.00
71672;DHT22;67659;45.554;11.812;2023-07-09T12:01:30;38.50;54.10
71672;DHT22;67659;45.554;11.812;2023-07-09T12:03:57;38.40;52.30
71672;DHT22;67659;45.554;11.812;2023-07-09T12:06:28;38.20;55.10
71672;DHT22;67659;45.554;11.812;2023-07-09T12:08:55;37.90;53.90
71672;DHT22;67659;45.554;11.812;2023-07-09T12:13:54;37.50;54.80
71672;DHT22;67659;45.554;11.812;2023-07-09T12:16:27;37.40;54.10
71672;DHT22;67659;45.554;11.812;2023-07-09T12:18:54;37.20;56.20
71672;DHT22;67659;45.554;11.812;2023-07-09T12:21:20;36.80;55.90
71672;DHT22;67659;45.554;11.812;2023-07-09T12:23:46;36.70;56.40
71672;DHT22;67659;45.554;11.812;2023-07-09T12:26:15;36.90;59.30
71672;DHT22;67659;45.554;11.812;2023-07-09T12:28:41;36.90;57.90
71672;DHT22;67659;45.554;11.812;2023-07-09T12:31:14;37.10;58.40
71672;DHT22;67659;45.554;11.812;2023-07-09T12:33:50;37.00;55.20
71672;DHT22;67659;45.554;11.812;2023-07-09T12:36:18;36.70;55.00
71672;DHT22;67659;45.554;11.812;2023-07-09T12:38:48;36.30;56.90
71672;DHT22;67659;45.554;11.812;2023-07-09T12:41:40;36.20;57.90
71672;DHT22;67659;45.554;11.812;2023-07-09T12:44:18;36.40;60.70
71672;DHT22;67659;45.554;11.812;2023-07-09T12:46:46;36.40;61.40
71672;DHT22;67659;45.554;11.812;2023-07-09T12:49:23;36.60;59.80
71672;DHT22;67659;45.554;11.812;2023-07-09T12:51:50;36.50;57.20
71672;DHT22;67659;45.554;11.812;2023-07-09T12:54:19;36.30;57.70
71672;DHT22;67659;45.554;11.812;2023-07-09T12:56:50;36.40;57.40
71672;DHT22;67659;45.554;11.812;2023-07-09T12:59:35;36.40;56.90
71672;DHT22;67659;45.554;11.812;2023-07-09T13:02:02;36.40;59.30
71672;DHT22;67659;45.554;11.812;2023-07-09T13:04:38;36.40;56.90
71672;DHT22;67659;45.554;11.812;2023-07-09T13:07:05;36.30;58.30
71672;DHT22;67659;45.554;11.812;2023-07-09T13:09:53;36.40;58.80
71672;DHT22;67659;45.554;11.812;2023-07-09T13:12:19;36.40;58.10
71672;DHT22;67659;45.554;11.812;2023-07-09T13:14:53;36.40;57.90
71672;DHT22;67659;45.554;11.812;2023-07-09T13:17:20;36.40;58.90
71672;DHT22;67659;45.554;11.812;2023-07-09T13:19:46;36.10;57.80
71672;DHT22;67659;45.554;11.812;2023-07-09T13:22:16;36.10;56.70
71672;DHT22;67659;45.554;11.812;2023-07-09T13:24:42;36.00;56.60
71672;DHT22;67659;45.554;11.812;2023-07-09T13:27:15;36.10;56.70
71672;DHT22;67659;45.554;11.812;2023-07-09T13:29:41;36.00;56.50
71672;DHT22;67659;45.554;11.812;2023-07-09T13:32:15;35.90;59.60
71672;DHT22;67659;45.554;11.812;2023-07-09T13:34:42;35.70;61.60
71672;DHT22;67659;45.554;11.812;2023-07-09T13:37:14;35.70;61.20
71672;DHT22;67659;45.554;11.812;2023-07-09T13:39:41;35.70;60.80
71672;DHT22;67659;45.554;11.812;2023-07-09T13:42:14;35.80;60.00
71672;DHT22;67659;45.554;11.812;2023-07-09T13:44:43;35.90;60.60
71672;DHT22;67659;45.554;11.812;2023-07-09T13:47:14;36.00;59.20
71672;DHT22;67659;45.554;11.812;2023-07-09T13:49:42;36.00;59.20
71672;DHT22;67659;45.554;11.812;2023-07-09T13:52:17;36.00;58.80
71672;DHT22;67659;45.554;11.812;2023-07-09T13:54:45;36.10;60.50
71672;DHT22;67659;45.554;11.812;2023-07-09T13:57:17;35.90;60.80
71672;DHT22;67659;45.554;11.812;2023-07-09T13:59:45;35.90;58.50
71672;DHT22;67659;45.554;11.812;2023-07-09T14:02:23;35.90;58.30
71672;DHT22;67659;45.554;11.812;2023-07-09T14:04:51;35.80;59.60
71672;DHT22;67659;45.554;11.812;2023-07-09T14:07:35;35.70;59.50
71672;DHT22;67659;45.554;11.812;2023-07-09T14:10:05;35.70;60.10
71672;DHT22;67659;45.554;11.812;2023-07-09T14:12:33;35.60;60.00
71672;DHT22;67659;45.554;11.812;2023-07-09T14:15:01;35.60;60.80
71672;DHT22;67659;45.554;11.812;2023-07-09T14:17:27;35.70;60.30
71672;DHT22;67659;45.554;11.812;2023-07-09T14:19:53;35.70;58.90
71672;DHT22;67659;45.554;11.812;2023-07-09T14:22:36;35.80;60.20
71672;DHT22;67659;45.554;11.812;2023-07-09T14:25:04;35.70;61.30
71672;DHT22;67659;45.554;11.812;2023-07-09T14:27:31;35.70;60.30
71672;DHT22;67659;45.554;11.812;2023-07-09T14:29:57;35.70;60.60
71672;DHT22;67659;45.554;11.812;2023-07-09T14:32:35;35.70;61.40
71672;DHT22;67659;45.554;11.812;2023-07-09T14:35:09;35.70;63.10
71672;DHT22;67659;45.554;11.812;2023-07-09T14:37:35;35.50;60.90
71672;DHT22;67659;45.554;11.812;2023-07-09T14:40:01;35.30;60.60
71672;DHT22;67659;45.554;11.812;2023-07-09T14:42:27;35.30;62.40
71672;DHT22;67659;45.554;11.812;2023-07-09T14:44:52;35.20;61.20
71672;DHT22;67659;45.554;11.812;2023-07-09T14:47:20;35.20;61.00
71672;DHT22;67659;45.554;11.812;2023-07-09T14:49:47;35.10;59.90
71672;DHT22;67659;45.554;11.812;2023-07-09T14:52:17;35.20;60.40
71672;DHT22;67659;45.554;11.812;2023-07-09T14:54:45;35.10;62.20
71672;DHT22;67659;45.554;11.812;2023-07-09T14:57:23;35.20;61.70
71672;DHT22;67659;45.554;11.812;2023-07-09T14:59:50;35.10;60.80
71672;DHT22;67659;45.554;11.812;2023-07-09T15:02:22;35.20;60.50
71672;DHT22;67659;45.554;11.812;2023-07-09T15:04:48;35.30;61.30
71672;DHT22;67659;45.554;11.812;2023-07-09T15:07:15;35.30;60.60
71672;DHT22;67659;45.554;11.812;2023-07-09T15:09:41;35.20;60.20
71672;DHT22;67659;45.554;11.812;2023-07-09T15:12:19;35.20;61.10
71672;DHT22;67659;45.554;11.812;2023-07-09T15:14:45;35.20;61.10
71672;DHT22;67659;45.554;11.812;2023-07-09T15:17:12;35.30;61.10
71672;DHT22;67659;45.554;11.812;2023-07-09T15:19:38;35.20;61.00
71672;DHT22;67659;45.554;11.812;2023-07-09T15:22:04;35.10;62.00
71672;DHT22;67659;45.554;11.812;2023-07-09T15:24:33;35.10;60.40
71672;DHT22;67659;45.554;11.812;2023-07-09T15:27:00;35.00;61.40
71672;DHT22;67659;45.554;11.812;2023-07-09T15:29:30;35.00;60.60
71672;DHT22;67659;45.554;11.812;2023-07-09T15:31:57;35.10;60.60
71672;DHT22;67659;45.554;11.812;2023-07-09T15:34:23;35.00;60.10
71672;DHT22;67659;45.554;11.812;2023-07-09T15:36:51;34.90;59.70
71672;DHT22;67659;45.554;11.812;2023-07-09T15:39:18;34.80;59.20
71672;DHT22;67659;45.554;11.812;2023-07-09T15:41:44;34.70;60.20
71672;DHT22;67659;45.554;11.812;2023-07-09T15:44:12;34.80;60.50
71672;DHT22;67659;45.554;11.812;2023-07-09T15:46:53;34.80;61.60
71672;DHT22;67659;45.554;11.812;2023-07-09T15:49:21;34.80;62.20
71672;DHT22;67659;45.554;11.812;2023-07-09T15:51:47;34.80;60.80
71672;DHT22;67659;45.554;11.812;2023-07-09T15:54:18;34.80;61.10
71672;DHT22;67659;45.554;11.812;2023-07-09T15:56:45;34.80;59.60
71672;DHT22;67659;45.554;11.812;2023-07-09T15:59:31;34.80;61.20
71672;DHT22;67659;45.554;11.812;2023-07-09T16:01:58;34.90;61.60
71672;DHT22;67659;45.554;11.812;2023-07-09T16:04:25;34.90;61.50
71672;DHT22;67659;45.554;11.812;2023-07-09T16:06:51;34.80;61.30